Time;durP1;ratioP1;P1;durP2;ratioP2;P2;SDS_P1;SDS_P2;PMS_P1;PMS_P2;Temp;Humidity;BMP_temperature;BMP_pressure;BME280_temperature;BME280_humidity;BME280_pressure;Samples;Min_cycle;Max_cycle;Signal;HPM_P1;HPM_P2
2022/06/04 00:00:36;;;;;;;7.80;3.60;;;14.70;99.90;;;;;;5091227;28;20651;-56
2022/06/04 00:03:03;;;;;;;10.43;3.35;;;14.60;99.90;;;;;;5091868;28;20201;-57
2022/06/04 00:05:31;;;;;;;9.43;3.72;;;14.60;99.90;;;;;;5091408;28;20492;-56
2022/06/04 00:07:59;;;;;;;9.52;3.38;;;14.60;99.90;;;;;;5091892;28;20183;-56
2022/06/04 00:15:59;;;;;;;7.43;3.40;;;14.70;99.90;;;;;;5090633;28;20687;-56
2022/06/04 00:18:24;;;;;;;5.07;3.08;;;14.70;99.90;;;;;;5090933;28;20271;-57
2022/06/04 00:20:52;;;;;;;7.07;3.53;;;14.60;99.90;;;;;;5091269;28;20311;-58
2022/06/04 00:23:19;;;;;;;5.97;2.92;;;14.60;99.90;;;;;;5091324;28;20180;-58
2022/06/04 00:25:49;;;;;;;5.93;3.08;;;14.40;99.90;;;;;;5091058;28;20210;-56
2022/06/04 00:28:17;;;;;;;8.40;3.25;;;14.40;99.90;;;;;;5078681;28;20648;-57
2022/06/04 00:30:43;;;;;;;12.50;3.75;;;;;;;;;;5091404;28;20160;-56
2022/06/04 00:33:09;;;;;;;7.30;3.17;;;14.50;99.90;;;;;;5091324;28;20208;-57
2022/06/04 00:35:35;;;;;;;9.15;3.35;;;14.70;99.90;;;;;;5091099;28;20195;-57
2022/06/04 00:38:03;;;;;;;8.02;3.42;;;14.40;99.90;;;;;;5091313;28;20179;-57
2022/06/04 00:41:12;;;;;;;8.65;3.30;;;14.40;99.90;;;;;;5090671;28;20172;-57
2022/06/04 00:44:02;;;;;;;11.35;3.67;;;14.50;99.90;;;;;;5090954;28;20224;-57
2022/06/04 00:46:40;;;;;;;8.90;3.78;;;14.40;99.90;;;;;;5090929;28;20272;-57
2022/06/04 00:49:16;;;;;;;7.15;3.22;;;14.40;99.90;;;;;;5088666;28;20237;-57
2022/06/04 00:51:45;;;;;;;7.47;3.42;;;14.20;99.90;;;;;;5090984;28;20693;-56
2022/06/04 00:54:11;;;;;;;7.43;3.25;;;14.50;99.90;;;;;;5091011;28;20307;-56
2022/06/04 00:57:02;;;;;;;7.80;2.78;;;14.80;99.90;;;;;;5090747;28;20213;-57
2022/06/04 00:59:45;;;;;;;10.45;3.45;;;14.50;99.90;;;;;;5090760;28;21068;-57
2022/06/04 01:02:33;;;;;;;9.77;3.30;;;14.60;99.90;;;;;;5089707;28;20207;-56
2022/06/04 01:04:59;;;;;;;6.88;2.70;;;;;;;;;;5090857;28;20174;-56
2022/06/04 01:07:57;;;;;;;8.55;3.67;;;14.50;99.90;;;;;;5090547;28;20254;-56
2022/06/04 01:10:54;;;;;;;11.40;2.90;;;14.50;99.90;;;;;;5090419;28;20662;-56
2022/06/04 01:13:35;;;;;;;5.90;2.70;;;14.50;99.90;;;;;;5076938;28;20243;-56
2022/06/04 01:16:01;;;;;;;8.43;3.00;;;;;;;;;;5090152;28;20184;-57
2022/06/04 01:18:37;;;;;;;4.80;2.53;;;14.30;99.90;;;;;;5090495;28;20195;-57
2022/06/04 01:21:24;;;;;;;9.52;2.45;;;15.30;99.90;;;;;;5070506;28;20707;-57
2022/06/04 01:24:04;;;;;;;7.63;2.78;;;14.20;99.90;;;;;;5077042;28;20184;-56
2022/06/04 01:26:45;;;;;;;6.22;2.58;;;14.40;99.90;;;;;;5090577;28;20509;-56
2022/06/04 01:29:20;;;;;;;5.75;2.33;;;14.20;99.90;;;;;;5090283;28;20648;-56
2022/06/04 01:32:33;;;;;;;6.07;2.00;;;14.20;99.90;;;;;;5090222;28;20198;-56
2022/06/04 01:35:23;;;;;;;5.57;2.35;;;14.20;99.90;;;;;;5079119;28;20180;-57
2022/06/04 01:37:49;;;;;;;6.43;2.17;;;;;;;;;;5089737;28;20228;-56
2022/06/04 01:43:09;;;;;;;3.17;1.77;;;14.20;99.90;;;;;;5075028;28;20170;-56
2022/06/04 01:45:37;;;;;;;12.50;2.45;;;13.80;99.90;;;;;;5090436;28;20592;-57
2022/06/04 01:48:05;;;;;;;4.95;1.90;;;14.10;99.90;;;;;;5090124;28;20664;-56
2022/06/04 01:50:41;;;;;;;3.88;2.15;;;14.10;99.90;;;;;;5079964;28;20172;-57
2022/06/04 01:53:09;;;;;;;5.70;2.08;;;14.10;99.90;;;;;;5089762;28;20203;-56
2022/06/04 01:55:41;;;;;;;3.78;1.90;;;14.20;99.90;;;;;;5090125;28;20187;-56
2022/06/04 01:58:17;;;;;;;3.22;1.83;;;13.80;99.90;;;;;;5089693;28;20171;-56
2022/06/04 02:00:47;;;;;;;7.78;1.95;;;13.90;99.90;;;;;;5090186;28;20164;-56
2022/06/04 02:03:30;;;;;;;8.38;2.05;;;13.90;99.90;;;;;;5090040;28;20228;-56
2022/06/04 02:06:05;;;;;;;6.20;1.90;;;13.60;99.90;;;;;;5089853;28;20218;-56
2022/06/04 02:08:43;;;;;;;3.78;1.90;;;13.90;99.90;;;;;;5089819;28;20172;-56
2022/06/04 02:11:15;;;;;;;4.25;1.85;;;13.80;99.90;;;;;;5088938;28;20172;-56
2022/06/04 02:13:44;;;;;;;3.75;2.05;;;13.90;99.90;;;;;;5093837;28;20254;-56
2022/06/04 02:16:28;;;;;;;4.35;1.73;;;14.00;99.90;;;;;;5093652;28;20176;-55
2022/06/04 02:18:56;;;;;;;14.63;2.22;;;13.70;99.90;;;;;;5093473;28;20259;-56
2022/06/04 02:21:22;;;;;;;5.88;2.05;;;;;;;;;;5093530;28;20301;-56
2022/06/04 02:23:49;;;;;;;6.25;1.80;;;;;;;;;;5093550;28;20623;-57
2022/06/04 02:26:16;;;;;;;8.38;2.20;;;13.60;99.90;;;;;;5094037;28;20168;-60
2022/06/04 02:28:42;;;;;;;2.58;1.50;;;13.70;99.90;;;;;;5093098;28;20207;-63
2022/06/04 02:31:10;;;;;;;7.20;2.05;;;13.50;99.90;;;;;;5093648;28;20204;-56
2022/06/04 02:33:48;;;;;;;8.30;2.20;;;13.70;99.90;;;;;;5093515;28;20204;-56
2022/06/04 02:36:47;;;;;;;6.90;2.20;;;13.60;99.90;;;;;;5092980;28;20331;-56
2022/06/04 02:39:31;;;;;;;5.43;1.88;;;13.60;99.90;;;;;;5093065;28;20180;-56
2022/06/04 02:42:10;;;;;;;4.38;1.92;;;13.50;99.90;;;;;;5093334;28;20608;-56
2022/06/04 02:44:49;;;;;;;7.65;1.90;;;13.50;99.90;;;;;;5093235;28;20225;-56
2022/06/04 02:47:22;;;;;;;8.55;2.30;;;13.60;99.90;;;;;;5093192;28;20184;-56
2022/06/04 02:49:54;;;;;;;8.85;2.22;;;13.50;99.90;;;;;;5092838;28;20175;-56
2022/06/04 02:52:20;;;;;;;9.10;2.15;;;13.50;99.90;;;;;;5092982;28;20286;-56
2022/06/04 02:55:14;;;;;;;8.75;2.63;;;13.60;99.90;;;;;;5093096;28;20172;-56
2022/06/04 02:57:44;;;;;;;5.72;2.40;;;13.80;99.90;;;;;;5091598;28;20682;-56
2022/06/04 03:00:13;;;;;;;9.63;2.80;;;13.30;99.90;;;;;;5093203;28;20160;-56
2022/06/04 03:02:39;;;;;;;12.02;2.72;;;;;;;;;;5093022;28;20206;-56
2022/06/04 03:05:14;;;;;;;7.05;2.92;;;13.70;99.90;;;;;;5092638;28;20172;-57
2022/06/04 03:07:43;;;;;;;5.30;2.60;;;13.70;99.90;;;;;;5092700;28;20175;-56
2022/06/04 03:10:13;;;;;;;5.18;2.65;;;13.60;99.90;;;;;;5092779;28;20183;-57
2022/06/04 03:12:39;;;;;;;8.35;3.10;;;;;;;;;;5092793;28;20214;-56
2022/06/04 03:15:06;;;;;;;6.13;2.83;;;13.40;99.90;;;;;;5092701;28;20186;-56
2022/06/04 03:17:32;;;;;;;6.28;3.00;;;13.30;99.90;;;;;;5092297;28;20226;-56
2022/06/04 03:19:58;;;;;;;7.03;3.00;;;;;;;;;;5092838;28;20632;-57
2022/06/04 03:22:24;;;;;;;11.23;3.13;;;13.50;99.90;;;;;;5091798;28;20180;-57
2022/06/04 03:24:50;;;;;;;9.95;3.22;;;;;;;;;;5091145;28;20739;-56
2022/06/04 03:27:15;;;;;;;8.50;3.17;;;13.30;99.90;;;;;;5091695;28;20174;-56
2022/06/04 03:29:41;;;;;;;11.65;3.25;;;;;;;;;;5092455;28;20180;-56
2022/06/04 03:32:07;;;;;;;9.90;3.33;;;;;;;;;;5092196;28;20200;-56
2022/06/04 03:34:34;;;;;;;8.57;3.20;;;;;;;;;;5091800;28;20172;-57
2022/06/04 03:36:59;;;;;;;10.85;3.55;;;13.30;99.90;;;;;;5092102;28;20172;-57
2022/06/04 03:39:25;;;;;;;11.27;3.53;;;;;;;;;;5092212;28;20675;-57
2022/06/04 03:41:51;;;;;;;9.45;3.58;;;;;;;;;;5091924;28;20656;-57
2022/06/04 03:44:17;;;;;;;10.18;3.08;;;;;;;;;;5092065;28;20241;-57
2022/06/04 03:46:43;;;;;;;11.73;4.07;;;13.40;99.90;;;;;;5092077;28;20680;-57
2022/06/04 03:49:09;;;;;;;6.63;3.08;;;;;;;;;;5092221;28;20206;-56
2022/06/04 03:51:37;;;;;;;7.75;3.47;;;;;;;;;;5092017;28;20233;-56
2022/06/04 03:54:03;;;;;;;8.13;3.38;;;;;;;;;;5092183;28;20760;-57
2022/06/04 03:56:29;;;;;;;9.07;3.38;;;13.70;99.90;;;;;;5091939;28;20177;-57
2022/06/04 03:58:55;;;;;;;8.80;3.85;;;13.10;99.90;;;;;;5091917;28;20225;-57
2022/06/04 04:01:26;;;;;;;8.20;3.65;;;13.50;99.90;;;;;;5091766;28;20171;-57
2022/06/04 04:03:52;;;;;;;7.50;3.28;;;13.60;99.90;;;;;;5091862;28;20210;-57
2022/06/04 04:06:24;;;;;;;10.15;3.40;;;13.30;99.90;;;;;;5091576;28;20588;-56
2022/06/04 04:08:51;;;;;;;13.07;4.05;;;13.40;99.90;;;;;;5090992;28;20180;-56
2022/06/04 04:11:19;;;;;;;15.88;3.88;;;13.40;99.90;;;;;;5091111;28;20190;-57
2022/06/04 04:13:46;;;;;;;9.18;3.83;;;13.60;99.90;;;;;;5091518;28;20204;-56
2022/06/04 04:16:14;;;;;;;10.43;4.40;;;13.30;99.90;;;;;;5091833;28;20211;-57
2022/06/04 04:18:40;;;;;;;10.25;4.32;;;;;;;;;;5091405;28;20198;-57
2022/06/04 04:21:09;;;;;;;12.02;4.72;;;13.30;99.90;;;;;;5091045;28;20364;-57
2022/06/04 04:23:35;;;;;;;6.55;4.00;;;;;;;;;;5091097;28;20183;-57
2022/06/04 04:26:01;;;;;;;15.40;5.57;;;13.20;99.90;;;;;;5091280;28;20179;-57
2022/06/04 04:28:27;;;;;;;11.00;4.68;;;13.10;99.90;;;;;;5090904;28;20656;-56
2022/06/04 04:30:54;;;;;;;10.52;4.72;;;;;;;;;;5091725;28;20172;-57
2022/06/04 04:33:20;;;;;;;13.85;5.22;;;;;;;;;;5089888;28;20246;-57
2022/06/04 04:35:46;;;;;;;16.98;5.57;;;;;;;;;;5090629;28;20167;-57
2022/06/04 04:38:12;;;;;;;12.23;5.72;;;13.00;99.90;;;;;;5090905;28;20176;-57
2022/06/04 04:40:41;;;;;;;17.13;5.82;;;12.80;99.90;;;;;;5090931;28;20263;-57
2022/06/04 04:43:07;;;;;;;18.23;7.03;;;;;;;;;;5091266;28;20183;-56
2022/06/04 04:45:33;;;;;;;15.73;6.73;;;12.80;99.90;;;;;;5091039;28;20172;-57
2022/06/04 04:48:00;;;;;;;15.30;6.13;;;12.60;99.90;;;;;;5090999;28;20512;-57
2022/06/04 04:50:29;;;;;;;14.73;6.30;;;12.50;99.90;;;;;;5090975;28;20182;-57
2022/06/04 04:52:57;;;;;;;12.47;6.10;;;12.80;99.90;;;;;;5090847;28;20216;-57
2022/06/04 04:55:23;;;;;;;14.23;6.83;;;12.20;99.90;;;;;;5090013;28;20259;-57
2022/06/04 04:57:49;;;;;;;13.17;6.77;;;12.50;99.90;;;;;;5090443;28;20197;-57
2022/06/04 05:00:19;;;;;;;12.30;7.30;;;;;;;;;;5090611;28;20644;-57
2022/06/04 05:02:45;;;;;;;19.13;7.25;;;12.50;99.90;;;;;;5090758;28;20187;-57
2022/06/04 05:05:11;;;;;;;12.03;7.30;;;11.90;99.90;;;;;;5090362;28;20187;-56
2022/06/04 05:07:41;;;;;;;17.98;7.68;;;12.50;99.90;;;;;;5090507;28;20176;-57
2022/06/04 05:10:09;;;;;;;12.93;6.47;;;12.30;99.90;;;;;;5090181;28;20168;-56
2022/06/04 05:12:35;;;;;;;14.87;6.90;;;12.60;99.90;;;;;;5090624;28;20252;-57
2022/06/04 05:15:01;;;;;;;15.13;6.90;;;;;;;;;;5090800;28;20172;-57
2022/06/04 05:17:27;;;;;;;12.63;7.40;;;12.40;99.90;;;;;;5090454;28;20233;-57
2022/06/04 05:19:53;;;;;;;13.33;6.50;;;12.50;99.90;;;;;;5090593;28;20534;-56
2022/06/04 05:22:19;;;;;;;16.83;6.60;;;12.50;99.90;;;;;;5090554;28;20262;-56
2022/06/04 05:24:45;;;;;;;13.60;6.83;;;;;;;;;;5090467;28;20184;-57
2022/06/04 05:27:11;;;;;;;14.85;7.35;;;;;;;;;;5090239;28;20176;-57
2022/06/04 05:29:37;;;;;;;15.23;7.63;;;12.40;99.90;;;;;;5090244;28;20567;-56
2022/06/04 05:32:05;;;;;;;16.70;6.90;;;12.10;99.90;;;;;;5090289;28;20184;-56
2022/06/04 05:34:31;;;;;;;16.83;7.23;;;12.50;99.90;;;;;;5090374;28;20183;-57
2022/06/04 05:36:58;;;;;;;12.17;6.93;;;;;;;;;;5090280;28;20190;-56
2022/06/04 05:39:24;;;;;;;17.43;6.80;;;12.50;99.90;;;;;;5090333;28;20171;-57
2022/06/04 05:41:50;;;;;;;21.90;7.97;;;12.30;99.90;;;;;;5090473;28;20178;-56
2022/06/04 05:44:17;;;;;;;18.03;7.23;;;12.50;99.90;;;;;;5090172;28;20240;-57
2022/06/04 05:46:44;;;;;;;15.33;7.67;;;;;;;;;;5091185;28;20194;-57
2022/06/04 05:49:13;;;;;;;17.10;7.60;;;12.50;99.90;;;;;;5093934;28;20172;-57
2022/06/04 05:51:42;;;;;;;11.10;6.53;;;12.30;99.90;;;;;;5094196;28;20187;-57
2022/06/04 05:54:08;;;;;;;20.42;7.10;;;;;;;;;;5094124;28;20222;-62
2022/06/04 05:56:36;;;;;;;15.50;6.77;;;12.50;99.90;;;;;;5093812;28;20172;-57
2022/06/04 05:59:06;;;;;;;14.52;6.47;;;12.40;99.90;;;;;;5094284;28;20266;-56
2022/06/04 06:01:33;;;;;;;11.60;6.20;;;12.60;99.90;;;;;;5093609;28;20190;-56
2022/06/04 06:03:59;;;;;;;14.48;6.68;;;12.40;99.90;;;;;;5094422;28;20257;-57
2022/06/04 06:06:28;;;;;;;21.53;6.70;;;12.60;99.90;;;;;;5093982;28;20184;-56
2022/06/04 06:08:55;;;;;;;17.90;6.30;;;12.50;99.90;;;;;;5093796;28;20171;-56
2022/06/04 06:11:22;;;;;;;12.53;6.57;;;12.60;99.90;;;;;;5089955;28;20190;-57
2022/06/04 06:13:49;;;;;;;12.03;6.73;;;12.60;99.90;;;;;;5093757;28;20212;-57
2022/06/04 06:16:18;;;;;;;16.73;6.90;;;12.70;99.90;;;;;;5092748;28;20266;-57
2022/06/04 06:18:44;;;;;;;18.60;6.63;;;12.90;99.90;;;;;;5093642;28;20186;-63
2022/06/04 06:21:16;;;;;;;12.63;6.50;;;12.80;99.90;;;;;;5093854;28;20247;-62
2022/06/04 06:23:43;;;;;;;17.10;5.93;;;12.90;99.90;;;;;;5093785;28;20196;-61
2022/06/04 06:26:16;;;;;;;16.87;6.17;;;12.80;99.90;;;;;;5093549;28;20187;-61
2022/06/04 06:28:43;;;;;;;10.57;6.27;;;12.90;99.90;;;;;;5093468;28;20280;-61
2022/06/04 06:31:11;;;;;;;12.38;5.40;;;12.70;99.90;;;;;;5093677;28;20265;-61
2022/06/04 06:33:38;;;;;;;12.50;6.18;;;;;;;;;;5093587;28;20215;-61
2022/06/04 06:36:12;;;;;;;12.63;5.83;;;13.00;99.90;;;;;;5093560;28;20176;-61
2022/06/04 06:38:38;;;;;;;11.13;5.07;;;13.10;99.90;;;;;;5093554;28;20266;-62
2022/06/04 06:41:05;;;;;;;16.70;5.90;;;13.10;99.90;;;;;;5093252;28;20176;-61
2022/06/04 06:43:46;;;;;;;12.80;5.65;;;13.00;99.90;;;;;;5093570;28;20226;-66
2022/06/04 06:46:27;;;;;;;8.23;5.68;;;13.00;99.90;;;;;;5093225;28;20179;-60
2022/06/04 06:49:04;;;;;;;11.40;5.40;;;12.90;99.90;;;;;;5093125;28;20206;-60
2022/06/04 06:51:36;;;;;;;13.90;6.28;;;12.90;99.90;;;;;;5093413;28;20180;-61
2022/06/04 06:54:02;;;;;;;13.18;5.50;;;13.00;99.90;;;;;;5092485;28;20211;-59
2022/06/04 06:56:31;;;;;;;12.32;5.57;;;13.10;99.90;;;;;;5092333;28;20225;-62
2022/06/04 06:58:59;;;;;;;11.80;5.55;;;13.00;99.90;;;;;;5091994;28;20202;-63
2022/06/04 07:01:26;;;;;;;11.05;5.68;;;;;;;;;;5092390;28;20220;-63
2022/06/04 07:03:53;;;;;;;16.07;5.73;;;;;;;;;;5093152;28;20302;-63
2022/06/04 07:06:32;;;;;;;13.45;5.25;;;13.00;99.90;;;;;;5093341;28;20221;-63
2022/06/04 07:08:59;;;;;;;10.20;5.77;;;13.00;99.90;;;;;;5092087;28;20170;-64
2022/06/04 07:11:25;;;;;;;10.55;5.32;;;12.80;99.90;;;;;;5081016;28;20310;-64
2022/06/04 07:13:51;;;;;;;13.05;5.28;;;;;;;;;;5091516;28;20512;-63
2022/06/04 07:16:17;;;;;;;12.32;5.18;;;13.00;99.90;;;;;;5088466;28;20703;-63
2022/06/04 07:18:43;;;;;;;10.57;5.13;;;;;;;;;;5086464;28;20184;-62
2022/06/04 07:21:08;;;;;;;12.80;5.53;;;13.00;99.90;;;;;;5088080;28;20656;-63
2022/06/04 07:23:36;;;;;;;14.60;6.10;;;;;;;;;;5092718;28;20164;-64
2022/06/04 07:26:03;;;;;;;10.20;5.28;;;13.30;99.90;;;;;;5092820;28;20172;-64
2022/06/04 07:28:28;;;;;;;12.75;6.07;;;13.50;99.90;;;;;;5092761;28;20198;-64
2022/06/04 07:30:54;;;;;;;13.15;5.50;;;13.30;99.90;;;;;;5092656;28;20237;-62
2022/06/04 07:33:21;;;;;;;13.07;6.03;;;;;;;;;;5092688;28;20246;-63
2022/06/04 07:35:48;;;;;;;13.63;5.85;;;13.40;99.90;;;;;;5091833;28;20225;-63
2022/06/04 07:38:14;;;;;;;11.43;5.27;;;;;;;;;;5091021;28;20199;-63
2022/06/04 07:40:40;;;;;;;9.82;5.22;;;;;;;;;;5091967;28;20202;-65
2022/06/04 07:43:05;;;;;;;13.02;5.30;;;13.10;99.90;;;;;;5092485;28;20168;-65
2022/06/04 07:45:32;;;;;;;13.50;5.78;;;13.30;99.90;;;;;;5092483;28;20164;-65
2022/06/04 07:47:58;;;;;;;13.32;5.07;;;;;;;;;;5092530;28;20180;-60
2022/06/04 07:50:24;;;;;;;12.27;5.47;;;12.90;99.90;;;;;;5091816;28;20649;-60
2022/06/04 07:52:49;;;;;;;17.02;6.00;;;13.00;99.90;;;;;;5091994;28;20269;-60
2022/06/04 07:55:16;;;;;;;14.13;5.40;;;;;;;;;;5092447;28;20691;-60
2022/06/04 07:57:42;;;;;;;10.18;5.25;;;;;;;;;;5092340;28;20168;-60
2022/06/04 08:00:08;;;;;;;11.60;5.75;;;13.10;99.90;;;;;;5090202;28;20517;-61
2022/06/04 08:02:34;;;;;;;13.85;5.68;;;;;;;;;;5091080;28;20176;-60
2022/06/04 08:05:00;;;;;;;11.57;5.97;;;;;;;;;;5091331;28;20262;-60
2022/06/04 08:07:27;;;;;;;15.25;6.25;;;;;;;;;;5091819;28;20198;-60
2022/06/04 08:09:53;;;;;;;12.60;5.80;;;13.20;99.90;;;;;;5091939;28;20241;-60
2022/06/04 08:12:20;;;;;;;11.57;5.40;;;13.10;99.90;;;;;;5091388;28;20408;-60
2022/06/04 08:14:46;;;;;;;14.05;5.32;;;;;;;;;;5091763;28;20183;-60
2022/06/04 08:17:12;;;;;;;13.25;5.68;;;13.20;99.90;;;;;;5091595;28;20159;-61
2022/06/04 08:19:39;;;;;;;8.68;5.65;;;13.20;99.90;;;;;;5091825;28;20180;-60
2022/06/04 08:22:05;;;;;;;8.95;4.80;;;13.40;99.90;;;;;;5091612;28;20212;-60
2022/06/04 08:24:31;;;;;;;12.98;4.65;;;;;;;;;;5091739;28;20180;-61
2022/06/04 08:26:59;;;;;;;10.82;5.53;;;13.70;99.90;;;;;;5091905;28;20244;-60
2022/06/04 08:29:39;;;;;;;10.20;5.13;;;13.60;99.90;;;;;;5088238;27;20946;-58
2022/06/04 08:32:06;;;;;;;6.95;4.97;;;13.70;99.90;;;;;;5088276;28;20225;-59
2022/06/04 08:34:32;;;;;;;12.98;4.82;;;13.40;99.90;;;;;;5088058;28;20237;-58
2022/06/04 08:36:59;;;;;;;9.68;4.63;;;13.80;99.90;;;;;;5088091;28;20171;-57
2022/06/04 08:39:25;;;;;;;11.45;5.47;;;13.80;99.90;;;;;;5087908;28;20239;-58
2022/06/04 08:42:11;;;;;;;10.05;5.10;;;13.80;99.90;;;;;;5089161;28;20226;-62
2022/06/04 08:44:48;;;;;;;12.88;5.50;;;13.80;99.90;;;;;;5086326;28;20203;-62
2022/06/04 08:47:25;;;;;;;7.95;4.82;;;13.70;99.90;;;;;;5087291;28;20254;-62
2022/06/04 08:50:03;;;;;;;15.32;4.90;;;14.00;99.90;;;;;;5088891;28;20180;-62
2022/06/04 08:52:33;;;;;;;9.90;4.75;;;14.00;99.90;;;;;;5087937;28;20168;-64
2022/06/04 08:57:53;;;;;;;12.85;5.03;;;14.10;99.90;;;;;;5087848;28;20657;-57
2022/06/04 09:00:34;;;;;;;14.18;5.25;;;14.10;99.90;;;;;;5086523;28;20658;-60
2022/06/04 09:03:00;;;;;;;12.48;4.60;;;;;;;;;;5086975;28;20186;-60
2022/06/04 09:05:32;;;;;;;8.40;4.57;;;14.20;99.90;;;;;;5095203;28;20168;-59
2022/06/04 09:08:03;;;;;;;13.27;4.30;;;13.70;99.90;;;;;;5107937;28;20183;-59
2022/06/04 09:10:46;;;;;;;9.10;4.43;;;14.10;99.90;;;;;;5106045;28;20179;-59
2022/06/04 09:13:39;;;;;;;7.15;4.50;;;14.00;99.90;;;;;;5107869;28;20180;-60
2022/06/04 09:16:42;;;;;;;10.52;4.80;;;14.20;99.90;;;;;;5081904;28;20178;-60
2022/06/04 09:19:18;;;;;;;14.98;4.55;;;14.20;99.90;;;;;;5095056;28;20208;-59
2022/06/04 09:21:45;;;;;;;10.40;4.60;;;14.10;99.90;;;;;;5105599;28;20179;-59
2022/06/04 09:24:11;;;;;;;9.90;4.63;;;14.10;99.90;;;;;;5106960;28;20183;-59
2022/06/04 09:26:44;;;;;;;11.20;5.05;;;14.00;99.90;;;;;;5101286;28;20203;-60
2022/06/04 09:29:30;;;;;;;11.40;4.72;;;14.10;99.90;;;;;;5091317;28;20254;-59
2022/06/04 09:31:59;;;;;;;10.25;4.85;;;14.30;99.90;;;;;;5086894;28;20175;-59
2022/06/04 09:34:30;;;;;;;11.73;4.78;;;14.10;99.90;;;;;;5089900;28;20180;-59
2022/06/04 09:36:56;;;;;;;10.02;4.40;;;14.10;99.90;;;;;;5087367;28;20264;-60
2022/06/04 09:39:22;;;;;;;11.73;4.60;;;;;;;;;;5085195;28;20282;-60
2022/06/04 09:41:57;;;;;;;12.43;4.72;;;14.50;99.90;;;;;;5078418;28;20185;-60
2022/06/04 09:44:24;;;;;;;11.75;3.92;;;14.70;99.90;;;;;;5062562;28;20168;-60
2022/06/04 09:46:57;;;;;;;8.68;4.15;;;14.70;99.90;;;;;;5073298;28;20180;-60
2022/06/04 09:49:32;;;;;;;13.50;5.00;;;14.90;99.90;;;;;;5073359;28;20184;-66
2022/06/04 09:51:59;;;;;;;10.70;3.90;;;15.40;99.90;;;;;;5072691;28;20272;-66
2022/06/04 09:54:33;;;;;;;10.77;4.22;;;15.40;99.90;;;;;;5072866;28;20176;-66
2022/06/04 09:57:03;;;;;;;7.28;3.28;;;16.40;99.90;;;;;;5053147;28;20622;-66
2022/06/04 09:59:32;;;;;;;7.43;3.70;;;15.90;99.90;;;;;;5065062;28;20645;-65
2022/06/04 10:02:10;;;;;;;11.15;3.85;;;16.00;99.90;;;;;;5071955;28;20165;-58
2022/06/04 10:04:48;;;;;;;8.57;3.47;;;16.10;99.90;;;;;;5073386;28;20322;-58
2022/06/04 10:07:29;;;;;;;7.53;3.38;;;16.40;99.90;;;;;;5073185;28;20538;-58
2022/06/04 10:09:58;;;;;;;11.63;3.50;;;;;;;;;;5072984;28;20176;-57
2022/06/04 10:15:45;;;;;;;7.65;3.20;;;16.60;99.90;;;;;;5072651;28;20295;-59
2022/06/04 10:18:30;;;;;;;8.98;3.70;;;16.70;99.90;;;;;;5072585;28;20243;-57
2022/06/04 10:20:56;;;;;;;11.25;4.18;;;;;;;;;;5072732;28;20169;-58
2022/06/04 10:23:23;;;;;;;9.10;3.65;;;16.20;99.90;;;;;;5072785;28;20286;-58
2022/06/04 10:25:49;;;;;;;11.98;3.75;;;;;;;;;;5072287;28;20169;-58
2022/06/04 10:28:36;;;;;;;9.18;3.65;;;16.40;99.90;;;;;;5073640;28;20322;-58
2022/06/04 10:31:30;;;;;;;9.40;3.95;;;16.80;99.90;;;;;;5084758;28;20279;-57
2022/06/04 10:34:13;;;;;;;10.73;3.60;;;16.70;99.90;;;;;;5072804;28;20858;-57
2022/06/04 10:36:54;;;;;;;9.65;3.55;;;16.70;99.90;;;;;;5083432;28;20171;-57
2022/06/04 10:39:32;;;;;;;8.02;3.60;;;16.80;99.90;;;;;;5072567;28;20765;-57
2022/06/04 10:42:23;;;;;;;10.38;3.67;;;16.80;99.90;;;;;;5083396;28;20650;-57
2022/06/04 10:45:07;;;;;;;7.43;3.42;;;17.30;99.90;;;;;;5076049;28;20179;-57
2022/06/04 10:47:44;;;;;;;10.10;3.78;;;17.20;99.90;;;;;;5072013;28;20176;-57
2022/06/04 10:50:22;;;;;;;8.05;3.53;;;17.00;99.90;;;;;;5071639;28;20175;-56
2022/06/04 10:52:58;;;;;;;6.50;3.00;;;17.20;99.90;;;;;;5069327;28;20254;-57
2022/06/04 10:55:24;;;;;;;5.63;3.00;;;;;;;;;;5071866;28;20176;-57
2022/06/04 10:58:22;;;;;;;7.45;3.00;;;17.70;99.90;;;;;;5071825;28;20246;-62
2022/06/04 11:00:57;;;;;;;11.73;3.33;;;17.80;99.90;;;;;;5071075;28;20161;-64
2022/06/04 11:03:39;;;;;;;8.63;3.13;;;18.30;99.90;;;;;;5071499;28;20172;-63
2022/06/04 11:06:14;;;;;;;8.70;2.88;;;18.50;99.90;;;;;;5074643;28;20168;-64
2022/06/04 11:08:55;;;;;;;9.40;3.00;;;19.10;99.90;;;;;;5071315;28;20180;-63
2022/06/04 11:11:41;;;;;;;6.97;2.88;;;20.00;99.90;;;;;;5086474;28;20253;-62
2022/06/04 11:14:16;;;;;;;10.77;2.60;;;20.30;99.90;;;;;;5085226;28;20226;-64
2022/06/04 11:16:50;;;;;;;7.13;3.08;;;20.40;99.90;;;;;;5087900;28;20172;-63
2022/06/04 11:19:22;;;;;;;6.72;2.40;;;20.70;99.90;;;;;;5073914;28;20611;-63
2022/06/04 11:21:57;;;;;;;10.68;2.72;;;20.70;99.90;;;;;;5071475;28;20183;-64
2022/06/04 11:24:45;;;;;;;6.90;2.55;;;20.50;99.90;;;;;;5071642;28;20181;-64
2022/06/04 11:27:26;;;;;;;8.07;2.60;;;20.60;99.90;;;;;;5072769;28;20172;-63
2022/06/04 11:29:53;;;;;;;6.90;2.90;;;20.80;99.90;;;;;;5050174;28;20208;-63
2022/06/04 11:32:30;;;;;;;10.98;2.90;;;20.20;99.90;;;;;;5051464;28;20168;-62
2022/06/04 11:35:14;;;;;;;10.20;2.50;;;20.10;99.90;;;;;;5051302;28;20325;-63
2022/06/04 11:38:12;;;;;;;10.18;2.67;;;20.40;99.90;;;;;;5051049;28;20652;-64
2022/06/04 11:40:55;;;;;;;5.40;2.33;;;20.90;99.90;;;;;;5053393;28;20192;-63
2022/06/04 11:43:46;;;;;;;8.32;2.60;;;21.00;99.90;;;;;;5071094;28;20196;-64
2022/06/04 11:46:36;;;;;;;7.65;2.80;;;20.70;99.90;;;;;;5071302;28;20189;-64
2022/06/04 11:49:14;;;;;;;6.95;2.40;;;20.40;99.90;;;;;;5074913;28;20252;-64
2022/06/04 11:51:54;;;;;;;10.27;2.85;;;21.10;99.90;;;;;;5070712;28;20223;-64
2022/06/04 11:54:40;;;;;;;5.20;2.42;;;21.30;99.90;;;;;;5070649;28;20168;-63
2022/06/04 11:57:26;;;;;;;7.75;2.47;;;21.50;99.90;;;;;;5070690;28;20179;-63
2022/06/04 11:59:52;;;;;;;7.70;2.65;;;;;;;;;;5070605;28;20654;-64
2022/06/04 12:02:38;;;;;;;10.27;2.55;;;22.60;99.90;;;;;;5070715;28;20696;-63
2022/06/04 12:05:20;;;;;;;7.32;2.33;;;23.30;99.90;;;;;;5070543;28;20714;-63
2022/06/04 12:07:51;;;;;;;8.48;2.42;;;23.70;99.90;;;;;;5070633;28;20188;-64
2022/06/04 12:10:22;;;;;;;6.25;2.45;;;23.90;99.90;;;;;;5090656;28;20172;-63
2022/06/04 12:13:11;;;;;;;8.93;2.83;;;24.50;99.90;;;;;;5084272;28;20179;-62
2022/06/04 12:15:55;;;;;;;8.95;2.55;;;24.90;99.90;;;;;;5050665;28;20663;-64
2022/06/04 12:18:28;;;;;;;7.70;2.50;;;25.50;99.90;;;;;;5060753;28;20244;-65
2022/06/04 12:24:26;;;;;;;8.00;2.60;;;25.50;99.90;;;;;;5087582;28;20199;-64
2022/06/04 12:27:06;;;;;;;8.32;2.33;;;24.60;99.90;;;;;;5074587;28;20440;-63
2022/06/04 12:29:35;;;;;;;9.27;2.30;;;24.60;99.90;;;;;;5061163;28;20219;-63
2022/06/04 12:32:02;;;;;;;4.60;2.08;;;24.80;99.90;;;;;;5070599;28;20179;-64
2022/06/04 12:34:35;;;;;;;5.80;2.15;;;25.70;99.90;;;;;;5070914;28;20659;-63
2022/06/04 12:37:01;;;;;;;8.90;2.50;;;25.70;99.90;;;;;;5085574;28;20199;-64
2022/06/04 12:39:38;;;;;;;8.07;2.13;;;26.00;99.90;;;;;;5089240;28;20203;-66
2022/06/04 12:42:13;;;;;;;9.25;2.47;;;26.00;99.90;;;;;;5088312;28;20174;-64
2022/06/04 12:44:42;;;;;;;6.10;2.25;;;25.80;99.90;;;;;;5089012;28;20182;-65
2022/06/04 12:47:25;;;;;;;4.85;2.38;;;25.20;99.90;;;;;;5089240;28;20622;-65
2022/06/04 12:49:54;;;;;;;7.47;2.58;;;25.20;99.90;;;;;;5087719;28;20184;-65
2022/06/04 12:52:37;;;;;;;8.23;2.67;;;25.00;99.90;;;;;;5089367;28;20172;-65
2022/06/04 12:55:26;;;;;;;6.13;2.67;;;24.30;99.90;;;;;;5074908;28;20219;-65
2022/06/04 12:57:52;;;;;;;5.32;2.40;;;;;;;;;;5070134;28;20200;-65
2022/06/04 13:00:18;;;;;;;9.27;4.22;;;24.60;99.90;;;;;;5068309;28;20523;-65
2022/06/04 13:02:59;;;;;;;7.13;2.28;;;24.60;99.90;;;;;;5078204;28;20694;-64
2022/06/04 13:05:26;;;;;;;10.88;2.60;;;24.20;99.90;;;;;;5073416;28;20188;-65
2022/06/04 13:08:20;;;;;;;10.00;2.40;;;23.70;99.90;;;;;;5071236;28;20172;-63
2022/06/04 13:11:15;;;;;;;6.68;2.42;;;23.20;99.90;;;;;;5061703;28;20183;-65
2022/06/04 13:13:41;;;;;;;11.70;2.75;;;;;;;;;;5045610;28;20687;-66
2022/06/04 13:16:19;;;;;;;8.07;2.70;;;23.10;99.90;;;;;;5072676;28;20192;-64
2022/06/04 13:19:11;;;;;;;5.65;2.53;;;22.80;99.90;;;;;;5073741;28;20402;-65
2022/06/04 13:21:40;;;;;;;8.02;2.88;;;21.90;99.90;;;;;;5073355;28;20225;-64
2022/06/04 13:24:16;;;;;;;6.50;2.58;;;21.40;99.90;;;;;;5073834;28;20204;-68
2022/06/04 13:26:55;;;;;;;7.55;2.35;;;22.00;99.90;;;;;;5073262;28;20160;-59
2022/06/04 13:29:30;;;;;;;5.63;2.58;;;22.00;99.90;;;;;;5074529;28;20227;-59
2022/06/04 13:32:02;;;;;;;8.88;2.65;;;21.90;99.90;;;;;;5073672;28;20175;-59
2022/06/04 13:34:33;;;;;;;6.13;2.60;;;21.70;99.90;;;;;;5073772;28;20225;-60
2022/06/04 13:37:04;;;;;;;6.70;2.35;;;21.50;99.90;;;;;;5075398;28;20225;-60
2022/06/04 13:39:31;;;;;;;10.02;2.88;;;21.40;99.90;;;;;;5076281;28;20308;-59
2022/06/04 13:42:06;;;;;;;8.68;2.58;;;21.10;99.90;;;;;;5091967;28;20164;-59
2022/06/04 13:44:37;;;;;;;9.93;2.92;;;21.40;99.90;;;;;;5084871;28;20175;-58